Weather at Charlottesville Albemarle Airport

Public forecast

Using degrees Fahrenheit for public forecast. Weather courtesy of forecast.io.

Current aviation weather report (METAR) for Charlottesville Albemarle Airport

Report is more than 6 hours old.

2022/11/14 14:53 (retrieved 2 years ago)

KCHO 141453Z 00000KT 10SM CLR 06/M04 A3040 RMK AO2 SLP296 T00611044 50016

Aviation forecast (TAF) for Charlottesville Albemarle Airport

Forecast is more than 12 hours old.

2023/02/22 18:45 (retrieved 1 year ago)

TAF KCHO 221743Z 2218/2318 01005KT P6SM OVC050 FM221900 16008G16KT P6SM BKN020 BKN050 FM222300 16008KT P6SM SCT020 BKN250 WS020/22030KT FM230500 20010KT P6SM SCT020 BKN120 FM230700 22012G20KT P6SM SCT020 BKN090 FM231400 23013G20KT P6SM SCT200